Aérodrome :
LOGIN :

S'inscrire | Disclaimer

   EN    FR    IT 

 










Légende :    VFR   VFR Marginal   IFR   IFR Intensif   IFR Très Intensif
Visi : 
Plafond : 
>= 8 km
>= 3000ft
5 à 8 km
1000 à 3000 ft
1500m à 5 km
500 à 1000 ft
800 à 1500m
200 à 500 ft
< 800m
< 200 ft
Symboles :   Orages  Brouillard  Fortes neiges  Fortes précipitations  Vent > 20 kt
SIGMETs :   Divers  Orages  Givrage  Turbulence  Onde Orograph.  Cendres Volcan.







- Altitude de l'aérodrome : 1455 ft


ETIH - Hohenfels Army Air Field

DERNIER METAR :
  • 131826Z AUTO 21010G15KT 2800 -SN BR BKN016 01/00 A2968 RMK AO2 VIS 2800V6000 UPB05E08SNB08 SLP077 $

METARs EXPIRÉS :
  • 131816Z AUTO 22006KT 8000 -SN BKN016 BKN034 02/M01 A2969 RMK AO2 UPB05E08SNB08 CIG 016V035 BKN016 V SCT SLP079 $
  • 131805Z AUTO 21010G14KT 9999 -UP FEW024 SCT035 02/M02 A2969 RMK AO2 UPB05 SLP079 $
  • 131756Z AUTO 18003KT 9999 BKN035 02/M02 A2969 RMK AO2 UPB16E27 SLP079 P0000 60000 T00201020 10039 20007 57030 $
  • 131727Z AUTO 18006KT 9999 FEW024 FEW031 SCT060 02/M02 A2971 RMK AO2 UPB16E27 SLP085 $
  • 131716Z AUTO 19006KT 9999 -UP FEW022 FEW029 SCT060 SCT080 02/M02 A2972 RMK AO2 UPB16 SLP089 $
  • 131656Z AUTO 19005KT 9999 FEW080 02/M02 A2972 RMK AO2 SLP089 T00151023 $
  • 131556Z AUTO 13004KT 9999 CLR 01/M03 A2974 RMK AO2 SLP098 T00091030 $

Prévision TAF périmée.
Pas de NOTAMs connus pour ce terrain.
1 SIGMET publié pour la FIR München (EDMM) :
 
Turbulence forte
EDMM SIGMET 1 VALID 131750/132000 EDZM
EDMM MUNCHEN FIR SEV TURB FCST S OF N4900 AND W OF E01100 SFC/FL060 MOV E NC=



MET'MAP, la Météo Aéronautique d'un coup d'oeil ! - Copyright ORBIFLY Décembre 2007 - Disclaimer

ORBIFLY MET'MAP TEAM :

Programmation & Développement : Alexandra Zaïnal
Conception & Développement : Baudouin d'Aumeries
Co-Programmation & Développement : Marc-Olivier Méhu
Soutien technique & logistique : Manuel Goepfert

Contact : metmap@orbifly.com




SOURCES & CREDITS :

   NOAA